createdAt,value
2017-09-03T00:00:51.782Z,87.50
2017-09-03T00:03:21.529Z,87.30
2017-09-03T00:05:50.486Z,87.20
2017-09-03T00:08:19.511Z,87.00
2017-09-03T00:10:48.858Z,86.90
2017-09-03T00:13:17.953Z,86.00
2017-09-03T00:15:46.913Z,86.30
2017-09-03T00:18:15.887Z,85.80
2017-09-03T00:20:44.867Z,86.40
2017-09-03T00:23:13.854Z,86.40
2017-09-03T00:25:42.808Z,86.60
2017-09-03T00:28:11.788Z,86.60
2017-09-03T00:30:40.881Z,86.90
2017-09-03T00:33:09.863Z,87.40
2017-09-03T00:35:38.804Z,88.10
2017-09-03T00:38:07.775Z,87.30
2017-09-03T00:40:36.727Z,88.00
2017-09-03T00:43:05.716Z,87.50
2017-09-03T00:45:34.670Z,85.90
2017-09-03T00:48:03.643Z,86.80
2017-09-03T00:50:32.637Z,87.40
2017-09-03T00:53:01.598Z,87.50
2017-09-03T00:55:30.552Z,87.20
2017-09-03T00:57:59.541Z,88.00
2017-09-03T01:00:28.518Z,88.10
2017-09-03T01:02:57.473Z,88.70
2017-09-03T01:05:26.432Z,88.10
2017-09-03T01:07:55.350Z,88.50
2017-09-03T01:10:24.326Z,88.00
2017-09-03T01:12:53.329Z,87.70
2017-09-03T01:15:22.305Z,88.40
2017-09-03T01:17:51.245Z,87.90
2017-09-03T01:20:20.234Z,87.30
2017-09-03T01:22:49.202Z,87.80
2017-09-03T01:25:18.177Z,88.60
2017-09-03T01:27:47.134Z,88.80
2017-09-03T01:30:16.507Z,88.40
2017-09-03T01:32:45.475Z,88.90
2017-09-03T01:35:14.446Z,88.80
2017-09-03T01:37:43.395Z,89.00
2017-09-03T01:40:12.366Z,88.10
2017-09-03T01:42:41.319Z,88.70
2017-09-03T01:45:10.289Z,87.90
2017-09-03T01:47:40.007Z,87.40
2017-09-03T01:50:08.990Z,87.10
2017-09-03T01:52:37.947Z,87.70
2017-09-03T01:55:06.921Z,86.00
2017-09-03T01:57:35.955Z,85.50
2017-09-03T02:00:04.957Z,85.70
2017-09-03T02:02:33.910Z,85.20
2017-09-03T02:05:03.039Z,86.20
2017-09-03T02:07:33.020Z,86.00
2017-09-03T02:10:01.968Z,87.00
2017-09-03T02:12:30.949Z,86.90
2017-09-03T02:14:59.901Z,87.50
2017-09-03T02:17:34.462Z,86.70
2017-09-03T02:20:03.415Z,87.10
2017-09-03T02:22:32.391Z,87.70
2017-09-03T02:25:01.383Z,86.10
2017-09-03T02:27:30.365Z,86.90
2017-09-03T02:30:00.090Z,86.80
2017-09-03T02:32:29.044Z,87.20
2017-09-03T02:34:58.874Z,87.70
2017-09-03T02:37:27.818Z,87.60
2017-09-03T02:39:56.797Z,88.20
2017-09-03T02:42:25.770Z,88.10
2017-09-03T02:44:54.758Z,88.10
2017-09-03T02:47:23.725Z,88.70
2017-09-03T02:49:52.692Z,88.20
2017-09-03T02:52:21.638Z,89.00
2017-09-03T02:54:50.784Z,87.10
2017-09-03T02:57:19.731Z,86.30
2017-09-03T02:59:48.690Z,87.90
2017-09-03T03:02:17.660Z,87.10
2017-09-03T03:04:46.610Z,87.40
2017-09-03T03:07:15.596Z,86.50
2017-09-03T03:09:44.595Z,87.20
2017-09-03T03:12:13.575Z,87.60
2017-09-03T03:14:42.533Z,88.90
2017-09-03T03:17:11.518Z,88.60
2017-09-03T03:19:40.461Z,89.30
2017-09-03T03:22:09.442Z,88.90
2017-09-03T03:24:38.799Z,89.30
2017-09-03T03:27:07.798Z,88.80
2017-09-03T03:29:38.471Z,87.20
2017-09-03T03:32:07.459Z,86.60
2017-09-03T03:34:36.404Z,85.90
2017-09-03T03:37:05.377Z,86.50
2017-09-03T03:39:34.317Z,86.00
2017-09-03T03:42:03.406Z,86.30
2017-09-03T03:44:32.351Z,86.20
2017-09-03T03:47:01.308Z,85.60
2017-09-03T03:49:30.294Z,87.10
2017-09-03T03:51:59.273Z,86.40
2017-09-03T03:54:28.229Z,86.10
2017-09-03T03:56:57.997Z,85.90
2017-09-03T03:59:26.990Z,84.80
2017-09-03T04:01:55.953Z,85.40
2017-09-03T04:04:24.904Z,85.30
2017-09-03T04:06:54.671Z,85.60
2017-09-03T04:09:23.659Z,85.60
2017-09-03T04:11:52.627Z,85.50
2017-09-03T04:14:21.567Z,86.10
2017-09-03T04:16:50.781Z,86.20
2017-09-03T04:19:19.888Z,86.30
2017-09-03T04:21:48.829Z,85.70
2017-09-03T04:24:17.787Z,85.40
2017-09-03T04:26:46.758Z,85.30
2017-09-03T04:29:15.730Z,84.90
2017-09-03T04:31:44.683Z,85.70
2017-09-03T04:34:13.664Z,86.40
2017-09-03T04:36:42.626Z,86.20
2017-09-03T04:39:11.585Z,87.60
2017-09-03T04:41:40.571Z,88.20
2017-09-03T04:44:09.925Z,88.00
2017-09-03T04:46:38.871Z,88.10
2017-09-03T04:49:07.843Z,87.70
2017-09-03T04:51:37.590Z,87.90
2017-09-03T04:54:06.553Z,88.60
2017-09-03T04:56:35.515Z,85.90
2017-09-03T04:59:04.477Z,85.60
2017-09-03T05:01:33.535Z,85.80
2017-09-03T05:04:02.509Z,86.00
2017-09-03T05:06:31.480Z,85.80
2017-09-03T05:09:00.439Z,85.40
2017-09-03T05:11:29.410Z,86.10
2017-09-03T05:13:58.360Z,86.40
2017-09-03T05:16:27.744Z,86.20
2017-09-03T05:18:56.685Z,86.30
2017-09-03T05:21:25.705Z,86.90
2017-09-03T05:23:54.670Z,86.80
2017-09-03T05:26:24.403Z,89.40
2017-09-03T05:28:53.359Z,88.70
2017-09-03T05:31:22.340Z,88.40
2017-09-03T05:33:51.297Z,87.80
2017-09-03T05:36:20.269Z,86.80
2017-09-03T05:38:49.205Z,87.00
2017-09-03T05:41:18.176Z,87.10
2017-09-03T05:43:47.146Z,86.90
2017-09-03T05:46:16.113Z,87.60
2017-09-03T05:48:45.074Z,86.70
2017-09-03T05:51:14.058Z,86.50
2017-09-03T05:53:43.007Z,86.90
2017-09-03T05:56:12.002Z,87.50
2017-09-03T05:58:40.955Z,86.90
2017-09-03T06:01:09.939Z,87.50
2017-09-03T06:03:38.891Z,87.00
2017-09-03T06:06:07.880Z,86.90
2017-09-03T06:08:36.848Z,86.50
2017-09-03T06:11:05.897Z,87.20
2017-09-03T06:13:34.842Z,87.70
2017-09-03T06:16:03.847Z,88.70
2017-09-03T06:18:32.853Z,89.30
2017-09-03T06:21:01.803Z,89.70
2017-09-03T06:23:30.865Z,88.80
2017-09-03T06:25:59.870Z,88.80
2017-09-03T06:28:28.830Z,88.30
2017-09-03T06:30:57.835Z,88.90
2017-09-03T06:33:26.917Z,91.20
2017-09-03T06:35:56.664Z,88.60
2017-09-03T06:38:26.078Z,88.00
2017-09-03T06:40:55.160Z,88.60
2017-09-03T06:43:24.134Z,89.00
2017-09-03T06:45:54.693Z,89.70
2017-09-03T06:48:23.688Z,89.60
2017-09-03T06:50:52.680Z,90.40
2017-09-03T06:53:21.656Z,90.80
2017-09-03T06:55:50.601Z,90.60
2017-09-03T06:58:19.583Z,90.50
2017-09-03T07:00:48.535Z,89.50
2017-09-03T07:03:17.546Z,90.30
2017-09-03T07:05:46.520Z,90.50
2017-09-03T07:08:15.525Z,90.40
2017-09-03T07:10:44.518Z,90.30
2017-09-03T07:13:13.534Z,89.90
2017-09-03T07:15:43.680Z,89.90
2017-09-03T07:18:12.698Z,89.60
2017-09-03T07:20:41.639Z,90.00
2017-09-03T07:23:10.723Z,89.30
2017-09-03T07:25:39.809Z,90.00
2017-09-03T07:28:08.796Z,89.70
2017-09-03T07:30:37.770Z,90.10
2017-09-03T07:33:06.776Z,90.20
2017-09-03T07:35:35.746Z,90.50
2017-09-03T07:38:04.756Z,90.60
2017-09-03T07:40:33.729Z,90.80
2017-09-03T07:43:02.727Z,91.20
2017-09-03T07:45:31.741Z,91.10
2017-09-03T07:48:00.726Z,90.00
2017-09-03T07:50:29.746Z,90.20
2017-09-03T07:52:58.761Z,89.50
2017-09-03T07:55:27.809Z,89.10
2017-09-03T07:57:56.779Z,90.00
2017-09-03T08:00:25.776Z,90.20
2017-09-03T08:02:54.724Z,88.70
2017-09-03T08:05:24.525Z,87.60
2017-09-03T08:07:53.465Z,86.60
2017-09-03T08:10:22.463Z,86.30
2017-09-03T08:12:51.433Z,87.20
2017-09-03T08:15:20.467Z,88.20
2017-09-03T08:17:49.493Z,83.10
2017-09-03T08:20:18.497Z,81.10
2017-09-03T08:22:47.499Z,81.60
2017-09-03T08:25:17.307Z,81.20
2017-09-03T08:27:46.284Z,82.00
2017-09-03T08:30:15.316Z,81.60
2017-09-03T08:32:45.299Z,80.40
2017-09-03T08:35:14.439Z,77.30
2017-09-03T08:37:43.427Z,78.80
2017-09-03T08:40:13.160Z,76.00
2017-09-03T08:42:42.151Z,76.70
2017-09-03T08:45:11.104Z,77.60
2017-09-03T08:47:40.067Z,78.60
2017-09-03T08:50:09.066Z,75.00
2017-09-03T08:52:38.026Z,76.00
2017-09-03T08:55:07.038Z,77.00
2017-09-03T08:57:36.034Z,77.20
2017-09-03T09:00:05.757Z,74.40
2017-09-03T09:02:34.742Z,74.70
2017-09-03T09:05:03.917Z,74.10
2017-09-03T09:07:32.882Z,75.80
2017-09-03T09:10:01.915Z,73.30
2017-09-03T09:12:30.890Z,74.00
2017-09-03T09:14:59.859Z,72.30
2017-09-03T09:17:28.854Z,72.90
2017-09-03T09:19:57.821Z,68.40
2017-09-03T09:22:27.244Z,71.00
2017-09-03T09:24:56.217Z,67.50
2017-09-03T09:27:25.188Z,67.90
2017-09-03T09:29:54.193Z,67.70
2017-09-03T09:32:23.127Z,66.20
2017-09-03T09:34:52.123Z,67.00
2017-09-03T09:37:21.080Z,69.70
2017-09-03T09:39:50.067Z,69.00
2017-09-03T09:42:19.011Z,70.20
2017-09-03T09:44:47.971Z,68.00
2017-09-03T09:47:17.073Z,70.20
2017-09-03T09:49:46.054Z,70.30
2017-09-03T09:52:15.769Z,70.00
2017-09-03T09:54:44.785Z,70.00
2017-09-03T09:57:13.745Z,65.70
2017-09-03T09:59:42.720Z,63.40
2017-09-03T10:02:11.760Z,64.00
2017-09-03T10:04:40.730Z,61.30
2017-09-03T10:07:09.705Z,61.70
2017-09-03T10:09:38.705Z,59.60
2017-09-03T10:12:07.646Z,56.20
2017-09-03T10:14:36.629Z,57.00
2017-09-03T10:17:05.610Z,55.80
2017-09-03T10:19:39.610Z,55.60
2017-09-03T10:22:09.691Z,54.60
2017-09-03T10:24:38.669Z,56.60
2017-09-03T10:27:08.728Z,57.40
2017-09-03T10:29:37.961Z,56.10
2017-09-03T10:32:06.918Z,53.80
2017-09-03T10:34:36.633Z,54.70
2017-09-03T10:37:05.610Z,55.70
2017-09-03T10:39:36.114Z,57.70
2017-09-03T10:42:05.169Z,58.20
2017-09-03T10:44:34.132Z,60.20
2017-09-03T10:47:03.181Z,59.20
2017-09-03T10:49:32.139Z,59.30
2017-09-03T10:52:01.633Z,59.30
2017-09-03T10:54:30.599Z,60.70
2017-09-03T10:57:00.316Z,57.00
2017-09-03T10:59:30.065Z,56.40
2017-09-03T11:01:59.316Z,55.40
2017-09-03T11:04:28.389Z,56.20
2017-09-03T11:06:57.770Z,56.40
2017-09-03T11:09:27.281Z,55.40
2017-09-03T11:11:57.050Z,53.10
2017-09-03T11:14:26.080Z,57.90
2017-09-03T11:16:55.847Z,52.20
2017-09-03T11:19:25.020Z,51.20
2017-09-03T11:21:54.374Z,52.30
2017-09-03T11:24:23.609Z,49.10
2017-09-03T11:26:52.581Z,52.40
2017-09-03T11:29:21.542Z,51.20
2017-09-03T11:31:50.721Z,46.70
2017-09-03T11:34:20.475Z,45.90
2017-09-03T11:36:50.210Z,45.80
2017-09-03T11:39:19.162Z,42.60
2017-09-03T11:41:48.154Z,45.20
2017-09-03T11:44:17.240Z,44.80
2017-09-03T11:46:46.686Z,36.90
2017-09-03T11:49:16.139Z,37.70
2017-09-03T11:51:45.563Z,39.60
2017-09-03T11:54:14.945Z,42.50
2017-09-03T11:56:44.349Z,45.40
2017-09-03T11:59:13.701Z,43.00
2017-09-03T12:01:42.671Z,40.40
2017-09-03T12:04:11.669Z,38.00
2017-09-03T12:06:40.638Z,41.80
2017-09-03T12:09:09.610Z,41.80
2017-09-03T12:11:39.055Z,41.40
2017-09-03T12:14:08.203Z,43.80
2017-09-03T12:16:37.180Z,44.70
2017-09-03T12:19:07.922Z,46.80
2017-09-03T12:21:37.487Z,49.50
2017-09-03T12:24:06.577Z,52.10
2017-09-03T12:26:35.673Z,54.20
2017-09-03T12:29:05.097Z,53.30
2017-09-03T12:31:35.119Z,53.90
2017-09-03T12:34:04.074Z,54.50
2017-09-03T12:36:33.828Z,52.60
2017-09-03T12:39:02.803Z,52.90
2017-09-03T12:41:32.543Z,50.40
2017-09-03T12:44:01.522Z,46.80
2017-09-03T12:46:47.329Z,45.00
2017-09-03T12:49:23.785Z,45.90
2017-09-03T12:51:53.593Z,41.30
2017-09-03T12:54:22.556Z,41.30
2017-09-03T12:57:03.989Z,36.40
2017-09-03T12:59:33.030Z,36.30
2017-09-03T13:02:01.976Z,33.50
2017-09-03T13:04:30.963Z,36.30
2017-09-03T13:07:00.013Z,29.60
2017-09-03T13:09:29.387Z,30.20
2017-09-03T13:11:58.370Z,27.50
2017-09-03T13:14:27.316Z,27.60
2017-09-03T13:16:56.693Z,29.00
2017-09-03T13:19:25.656Z,32.90
2017-09-03T13:21:54.807Z,33.90
2017-09-03T13:24:23.784Z,39.20
2017-09-03T13:26:52.742Z,40.70
2017-09-03T13:29:24.622Z,42.10
2017-09-03T13:31:53.568Z,33.30
2017-09-03T13:34:22.528Z,32.50
2017-09-03T13:36:51.702Z,32.90
2017-09-03T13:39:21.050Z,29.40
2017-09-03T13:41:49.993Z,29.90
2017-09-03T13:44:18.970Z,27.20
2017-09-03T13:46:48.877Z,27.10
2017-09-03T13:49:17.904Z,31.80
2017-09-03T13:51:46.855Z,36.80
2017-09-03T13:54:15.845Z,38.70
2017-09-03T13:56:44.929Z,39.10
2017-09-03T13:59:14.679Z,40.00
2017-09-03T14:01:44.413Z,42.40
2017-09-03T14:04:13.361Z,44.00
2017-09-03T14:06:42.381Z,44.40
2017-09-03T14:09:11.403Z,46.40
2017-09-03T14:11:41.094Z,48.10
2017-09-03T14:14:10.523Z,48.50
2017-09-03T14:16:39.472Z,46.40
2017-09-03T14:19:08.854Z,45.20
2017-09-03T14:21:37.798Z,44.40
2017-09-03T14:24:06.815Z,43.80
2017-09-03T14:26:36.542Z,45.20
2017-09-03T14:29:05.541Z,44.20
2017-09-03T14:31:34.678Z,38.70
2017-09-03T14:34:04.616Z,39.70
2017-09-03T14:36:34.913Z,43.50
2017-09-03T14:39:03.900Z,43.10
2017-09-03T14:41:33.225Z,43.60
2017-09-03T14:47:07.188Z,43.70
2017-09-03T14:49:35.932Z,44.90
2017-09-03T14:52:04.664Z,45.80
2017-09-03T14:54:34.039Z,47.00
2017-09-03T14:57:02.997Z,48.10
2017-09-03T14:59:32.380Z,48.20
2017-09-03T15:02:02.090Z,48.30
2017-09-03T15:04:31.841Z,47.90
2017-09-03T15:07:00.834Z,48.50
2017-09-03T15:09:29.794Z,48.60
2017-09-03T15:11:58.746Z,46.90
2017-09-03T15:14:27.926Z,47.20
2017-09-03T15:16:56.923Z,48.00
2017-09-03T15:19:25.889Z,46.50
2017-09-03T15:21:54.897Z,47.00
2017-09-03T15:24:23.940Z,47.40
2017-09-03T15:26:52.899Z,47.90
2017-09-03T15:29:21.848Z,48.40
2017-09-03T15:31:50.866Z,47.50
2017-09-03T15:34:19.839Z,47.80
2017-09-03T15:36:48.805Z,47.80
2017-09-03T15:39:17.748Z,48.70
2017-09-03T15:41:46.734Z,46.90
2017-09-03T15:44:15.693Z,47.80
2017-09-03T15:46:44.678Z,47.20
2017-09-03T15:49:13.813Z,47.80
2017-09-03T15:51:43.541Z,48.90
2017-09-03T15:54:12.492Z,47.40
2017-09-03T15:56:41.665Z,48.60
2017-09-03T15:59:10.621Z,49.10
2017-09-03T16:01:39.575Z,48.70
2017-09-03T16:04:08.614Z,49.70
2017-09-03T16:06:37.681Z,49.30
2017-09-03T16:09:06.681Z,50.40
2017-09-03T16:11:35.637Z,50.40
2017-09-03T16:14:04.588Z,49.80
2017-09-03T16:16:33.609Z,51.00
2017-09-03T16:19:02.555Z,52.00
2017-09-03T16:21:31.521Z,52.40
2017-09-03T16:24:00.473Z,49.50
2017-09-03T16:26:29.479Z,48.60
2017-09-03T16:28:58.461Z,49.50
2017-09-03T16:31:27.485Z,50.40
2017-09-03T16:33:56.459Z,47.30
2017-09-03T16:36:25.510Z,48.00
2017-09-03T16:38:54.463Z,52.50
2017-09-03T16:41:23.461Z,55.50
2017-09-03T16:43:52.434Z,56.20
2017-09-03T16:46:22.211Z,53.30
2017-09-03T16:48:51.265Z,53.20
2017-09-03T16:51:20.250Z,53.50
2017-09-03T16:53:49.203Z,55.70
2017-09-03T16:56:18.189Z,52.60
2017-09-03T16:58:47.258Z,54.50
2017-09-03T17:01:16.431Z,55.20
2017-09-03T17:03:45.471Z,54.80
2017-09-03T17:06:16.232Z,55.30
2017-09-03T17:08:45.225Z,55.30
2017-09-03T17:11:14.183Z,55.80
2017-09-03T17:13:43.196Z,56.00
2017-09-03T17:16:12.212Z,58.30
2017-09-03T17:18:42.198Z,57.60
2017-09-03T17:21:12.198Z,58.70
2017-09-03T17:23:41.184Z,60.90
2017-09-03T17:26:10.173Z,61.70
2017-09-03T17:28:39.162Z,63.40
2017-09-03T17:34:04.361Z,66.00
2017-09-03T17:36:44.123Z,67.80
2017-09-03T17:39:13.123Z,68.60
2017-09-03T17:41:42.864Z,69.90
2017-09-03T17:44:14.455Z,69.80
2017-09-03T17:46:48.017Z,68.70
2017-09-03T17:49:17.710Z,70.80
2017-09-03T17:51:46.715Z,70.70
2017-09-03T17:54:15.699Z,70.20
2017-09-03T17:56:44.646Z,70.90
2017-09-03T17:59:13.629Z,71.50
2017-09-03T18:01:42.747Z,71.60
2017-09-03T18:04:11.943Z,72.40
2017-09-03T18:06:40.917Z,73.30
2017-09-03T18:09:10.298Z,72.90
2017-09-03T18:11:39.382Z,72.80
2017-09-03T18:14:08.362Z,73.30
2017-09-03T18:16:37.384Z,73.70
2017-09-03T18:19:06.770Z,73.40
2017-09-03T18:21:35.823Z,73.70
2017-09-03T18:24:04.784Z,73.70
2017-09-03T18:26:34.690Z,74.50
2017-09-03T18:29:04.554Z,74.50
2017-09-03T18:31:43.474Z,74.50
2017-09-03T18:34:12.495Z,74.50
2017-09-03T18:36:45.569Z,73.90
2017-09-03T18:42:23.165Z,76.40
2017-09-03T18:44:52.543Z,76.00
2017-09-03T18:47:21.533Z,76.30
2017-09-03T18:49:51.000Z,76.80
2017-09-03T18:55:17.275Z,77.70
2017-09-03T18:57:47.730Z,78.20
2017-09-03T19:00:16.713Z,78.40
2017-09-03T19:02:59.676Z,79.00
2017-09-03T19:05:30.336Z,79.90
2017-09-03T19:07:59.401Z,80.10
2017-09-03T19:10:28.420Z,79.70
2017-09-03T19:12:58.491Z,79.70
2017-09-03T19:15:27.850Z,79.70
2017-09-03T19:17:57.231Z,80.00
2017-09-03T19:20:26.274Z,80.70
2017-09-03T19:22:55.283Z,79.70
2017-09-03T19:25:24.377Z,80.00
2017-09-03T19:27:53.603Z,80.60
2017-09-03T19:30:22.657Z,81.50
2017-09-03T19:32:51.691Z,81.00
2017-09-03T19:35:20.701Z,80.70
2017-09-03T19:37:52.275Z,81.70
2017-09-03T19:40:21.296Z,81.10
2017-09-03T19:42:50.300Z,81.60
2017-09-03T19:45:19.280Z,81.30
2017-09-03T19:47:48.762Z,82.00
2017-09-03T19:50:18.117Z,82.50
2017-09-03T19:52:47.098Z,81.50
2017-09-03T19:55:16.267Z,82.00
2017-09-03T19:57:45.257Z,81.90
2017-09-03T20:00:14.280Z,81.80
2017-09-03T20:02:43.266Z,82.00
2017-09-03T20:05:12.313Z,81.90
2017-09-03T20:07:41.296Z,81.90
2017-09-03T20:10:10.339Z,82.50
2017-09-03T20:12:39.370Z,82.50
2017-09-03T20:15:08.361Z,82.70
2017-09-03T20:17:37.707Z,82.20
2017-09-03T20:20:06.707Z,81.80
2017-09-03T20:22:35.703Z,82.30
2017-09-03T20:25:04.706Z,82.50
2017-09-03T20:27:33.648Z,83.20
2017-09-03T20:30:02.733Z,82.80
2017-09-03T20:32:32.080Z,82.40
2017-09-03T20:35:01.519Z,82.80
2017-09-03T20:37:30.479Z,82.90
2017-09-03T20:39:59.454Z,82.40
2017-09-03T20:42:28.428Z,82.90
2017-09-03T20:44:57.876Z,82.80
2017-09-03T20:47:26.951Z,82.70
2017-09-03T20:49:55.929Z,83.30
2017-09-03T20:52:24.915Z,83.50
2017-09-03T20:54:53.837Z,83.20
2017-09-03T20:57:23.651Z,83.00
2017-09-03T20:59:52.638Z,82.70
2017-09-03T21:02:21.684Z,83.50
2017-09-03T21:04:50.652Z,83.90
2017-09-03T21:07:20.044Z,83.30
2017-09-03T21:09:49.394Z,83.20
2017-09-03T21:12:18.383Z,82.90
2017-09-03T21:14:48.121Z,83.80
2017-09-03T21:17:17.167Z,83.70
2017-09-03T21:19:46.141Z,83.30
2017-09-03T21:22:15.130Z,82.50
2017-09-03T21:24:44.546Z,83.40
2017-09-03T21:27:13.530Z,82.90
2017-09-03T21:29:42.497Z,82.90
2017-09-03T21:32:11.492Z,83.50
2017-09-03T21:34:40.888Z,83.70
2017-09-03T21:37:09.852Z,84.10
2017-09-03T21:39:38.899Z,84.50
2017-09-03T21:42:08.050Z,84.70
2017-09-03T21:44:37.895Z,84.50
2017-09-03T21:47:07.052Z,84.80
2017-09-03T21:49:36.022Z,85.20
2017-09-03T21:52:05.041Z,84.90
2017-09-03T21:54:34.453Z,84.20
2017-09-03T21:57:03.444Z,84.70
2017-09-03T21:59:32.388Z,85.50
2017-09-03T22:02:01.452Z,84.10
2017-09-03T22:04:30.832Z,84.60
2017-09-03T22:07:00.644Z,84.30
2017-09-03T22:09:30.365Z,84.60
2017-09-03T22:11:59.441Z,84.20
2017-09-03T22:14:28.405Z,84.20
2017-09-03T22:16:57.381Z,84.80
2017-09-03T22:19:26.832Z,85.30
2017-09-03T22:21:55.826Z,85.00
2017-09-03T22:24:24.812Z,85.40
2017-09-03T22:26:53.817Z,84.90
2017-09-03T22:29:22.797Z,84.70
2017-09-03T22:31:51.735Z,84.00
2017-09-03T22:34:20.942Z,84.30
2017-09-03T22:36:50.398Z,84.90
2017-09-03T22:39:19.664Z,84.70
2017-09-03T22:41:49.392Z,84.40
2017-09-03T22:44:18.767Z,84.30
2017-09-03T22:46:47.742Z,84.60
2017-09-03T22:49:17.184Z,85.10
2017-09-03T22:51:46.166Z,84.20
2017-09-03T22:54:15.168Z,84.20
2017-09-03T22:56:44.183Z,84.70
2017-09-03T22:59:13.319Z,84.90
2017-09-03T23:01:42.672Z,85.20
2017-09-03T23:04:11.756Z,85.10
2017-09-03T23:06:40.744Z,85.60
2017-09-03T23:09:09.760Z,85.60
2017-09-03T23:11:39.522Z,86.20
2017-09-03T23:14:09.266Z,85.60
2017-09-03T23:16:38.254Z,85.20
2017-09-03T23:19:07.969Z,85.50
2017-09-03T23:21:37.422Z,85.70
2017-09-03T23:24:06.381Z,85.30
2017-09-03T23:26:35.393Z,85.30
2017-09-03T23:29:04.838Z,84.90
2017-09-03T23:31:33.829Z,85.50
2017-09-03T23:34:02.848Z,85.10
2017-09-03T23:36:31.834Z,84.80
2017-09-03T23:39:00.831Z,85.60
2017-09-03T23:41:29.865Z,85.80
2017-09-03T23:43:58.854Z,86.30
2017-09-03T23:46:27.949Z,85.30
2017-09-03T23:48:56.904Z,86.20
2017-09-03T23:51:25.898Z,86.70
2017-09-03T23:53:54.848Z,86.60
2017-09-03T23:56:23.842Z,86.80
2017-09-03T23:58:52.841Z,86.00
